createdAt,value
2023-02-24T00:00:52.488Z,9.73
2023-02-24T00:03:26.950Z,10.27
2023-02-24T00:06:00.141Z,10.10
2023-02-24T00:08:33.148Z,10.50
2023-02-24T00:11:13.146Z,10.75
2023-02-24T00:13:47.369Z,10.43
2023-02-24T00:16:20.803Z,10.50
2023-02-24T00:18:55.241Z,10.05
2023-02-24T00:21:30.133Z,10.63
2023-02-24T00:24:04.315Z,10.63
2023-02-24T00:26:37.598Z,10.00
2023-02-24T00:29:13.347Z,11.20
2023-02-24T00:31:47.221Z,10.90
2023-02-24T00:34:21.679Z,10.70
2023-02-24T00:36:54.703Z,11.90
2023-02-24T00:39:30.775Z,11.13
2023-02-24T00:42:07.111Z,10.97
2023-02-24T00:44:42.390Z,10.48
2023-02-24T00:47:17.602Z,9.85
2023-02-24T00:49:51.963Z,10.20
2023-02-24T00:52:27.785Z,9.35
2023-02-24T00:55:00.937Z,9.32
2023-02-24T00:57:35.385Z,10.03
2023-02-24T01:00:14.071Z,9.95
2023-02-24T01:02:47.798Z,9.98
2023-02-24T01:05:22.182Z,10.13
2023-02-24T01:07:55.274Z,10.53
2023-02-24T01:10:28.644Z,9.77
2023-02-24T01:13:02.889Z,9.70
2023-02-24T01:15:35.886Z,9.93
2023-02-24T01:18:11.533Z,9.90
2023-02-24T01:20:45.899Z,9.43
2023-02-24T01:23:18.895Z,9.85
2023-02-24T01:25:51.900Z,10.25
2023-02-24T01:28:25.122Z,9.88
2023-02-24T01:31:02.854Z,10.10
2023-02-24T01:33:37.293Z,9.55
2023-02-24T01:36:15.099Z,11.23
2023-02-24T01:38:49.171Z,10.98
2023-02-24T01:41:27.716Z,11.57
2023-02-24T01:44:06.081Z,11.15
2023-02-24T01:46:41.172Z,9.68
2023-02-24T01:49:20.051Z,9.13
2023-02-24T01:51:58.840Z,11.35
2023-02-24T01:54:36.104Z,10.95
2023-02-24T01:57:09.714Z,12.57
2023-02-24T01:59:43.008Z,11.10
2023-02-24T02:02:17.619Z,10.88
2023-02-24T02:04:54.137Z,10.20
2023-02-24T02:07:30.716Z,9.65
2023-02-24T02:10:04.404Z,10.48
2023-02-24T02:12:44.371Z,10.45
2023-02-24T02:15:20.545Z,10.40
2023-02-24T02:18:03.707Z,11.10
2023-02-24T02:21:26.313Z,11.17
2023-02-24T02:24:19.315Z,11.27
2023-02-24T02:27:21.353Z,9.30
2023-02-24T02:30:45.279Z,9.73
2023-02-24T02:33:47.967Z,9.87
2023-02-24T02:36:28.101Z,10.30
2023-02-24T02:39:13.058Z,9.65
2023-02-24T02:41:55.997Z,10.50
2023-02-24T02:44:39.717Z,10.50
2023-02-24T02:47:23.169Z,11.43
2023-02-24T02:50:02.316Z,10.20
2023-02-24T02:52:42.347Z,11.30
2023-02-24T02:55:21.638Z,12.65
2023-02-24T02:57:57.952Z,13.77
2023-02-24T03:00:42.011Z,15.07
2023-02-24T03:03:19.321Z,14.95
2023-02-24T03:05:59.671Z,16.42
2023-02-24T03:08:37.237Z,18.15
2023-02-24T03:11:16.177Z,20.65
2023-02-24T03:13:52.574Z,20.05
2023-02-24T03:16:28.111Z,18.35
2023-02-24T03:19:07.618Z,15.63
2023-02-24T03:21:46.869Z,15.70
2023-02-24T03:24:20.708Z,14.75
2023-02-24T03:27:02.342Z,15.00
2023-02-24T03:29:42.628Z,15.32
2023-02-24T03:32:22.603Z,15.70
2023-02-24T03:34:59.488Z,13.13
2023-02-24T03:37:34.121Z,13.93
2023-02-24T03:40:11.816Z,14.10
2023-02-24T03:42:49.167Z,14.53
2023-02-24T03:45:23.154Z,14.90
2023-02-24T03:47:56.560Z,15.13
2023-02-24T03:50:31.859Z,15.20
2023-02-24T03:53:23.332Z,14.60
2023-02-24T03:56:06.493Z,16.70
2023-02-24T03:58:58.223Z,16.37
2023-02-24T04:01:39.100Z,16.90
2023-02-24T04:04:20.237Z,15.27
2023-02-24T04:06:59.107Z,16.33
2023-02-24T04:09:42.896Z,17.80
2023-02-24T04:12:20.195Z,19.67
2023-02-24T04:14:59.057Z,18.65
2023-02-24T04:17:39.811Z,18.90
2023-02-24T04:20:20.394Z,20.00
2023-02-24T04:22:59.513Z,20.60
2023-02-24T04:25:33.960Z,20.38
2023-02-24T04:28:08.878Z,20.63
2023-02-24T04:30:46.791Z,21.55
2023-02-24T04:33:20.632Z,22.38
2023-02-24T04:35:54.384Z,21.15
2023-02-24T04:38:27.457Z,21.05
2023-02-24T04:41:02.973Z,22.33
2023-02-24T04:43:36.785Z,21.38
2023-02-24T04:46:09.821Z,20.75
2023-02-24T04:48:42.847Z,20.27
2023-02-24T04:51:15.965Z,19.40
2023-02-24T04:53:55.319Z,18.38
2023-02-24T04:56:29.875Z,19.58
2023-02-24T04:59:02.900Z,20.88
2023-02-24T05:01:36.192Z,20.65
2023-02-24T05:04:10.103Z,21.73
2023-02-24T05:06:44.257Z,23.02
2023-02-24T05:09:18.922Z,24.00
2023-02-24T05:11:53.762Z,25.40
2023-02-24T05:14:26.876Z,25.90
2023-02-24T05:17:00.409Z,22.70
2023-02-24T05:19:51.536Z,23.17
2023-02-24T05:22:24.684Z,23.48
2023-02-24T05:24:58.224Z,25.05
2023-02-24T05:27:32.646Z,27.15
2023-02-24T05:30:09.748Z,26.40
2023-02-24T05:32:43.069Z,26.08
2023-02-24T05:35:16.098Z,26.23
2023-02-24T05:37:49.121Z,25.55
2023-02-24T05:40:24.097Z,26.13
2023-02-24T05:43:03.019Z,25.55
2023-02-24T05:45:36.166Z,25.67
2023-02-24T05:48:09.324Z,23.98
2023-02-24T05:50:46.112Z,25.35
2023-02-24T05:53:19.132Z,24.55
2023-02-24T05:55:52.190Z,27.05
2023-02-24T05:58:29.062Z,27.88
2023-02-24T06:01:06.764Z,28.30
2023-02-24T06:03:41.370Z,27.77
2023-02-24T06:06:15.981Z,29.13
2023-02-24T06:08:52.048Z,29.38
2023-02-24T06:11:25.316Z,29.88
2023-02-24T06:13:59.873Z,30.42
2023-02-24T06:16:32.996Z,30.27
2023-02-24T06:19:07.630Z,28.20
2023-02-24T06:21:42.839Z,28.00
2023-02-24T06:24:18.567Z,31.65
2023-02-24T06:26:53.669Z,32.70
2023-02-24T06:29:29.555Z,29.92
2023-02-24T06:32:08.576Z,33.05
2023-02-24T06:34:41.807Z,33.03
2023-02-24T06:37:16.460Z,32.97
2023-02-24T06:39:49.484Z,35.17
2023-02-24T06:42:22.592Z,35.42
2023-02-24T06:44:56.962Z,37.75
2023-02-24T06:47:30.361Z,37.22
2023-02-24T06:50:05.076Z,36.90
2023-02-24T06:52:38.128Z,38.38
2023-02-24T06:55:25.389Z,37.90
2023-02-24T06:58:04.338Z,36.17
2023-02-24T07:00:39.197Z,36.88
2023-02-24T07:03:17.742Z,36.60
2023-02-24T07:05:54.325Z,36.15
2023-02-24T07:08:28.280Z,37.28
2023-02-24T07:11:01.344Z,35.95
2023-02-24T07:13:36.241Z,36.92
2023-02-24T07:16:11.950Z,38.25
2023-02-24T07:18:48.325Z,39.78
2023-02-24T07:21:23.542Z,37.35
2023-02-24T07:23:59.042Z,39.05
2023-02-24T07:26:32.422Z,38.17
2023-02-24T07:29:06.463Z,40.20
2023-02-24T07:31:42.882Z,40.80
2023-02-24T07:34:23.475Z,38.60
2023-02-24T07:36:57.911Z,38.30
2023-02-24T07:39:31.031Z,40.22
2023-02-24T07:42:04.358Z,39.20
2023-02-24T07:44:38.905Z,38.47
2023-02-24T07:47:15.626Z,39.78
2023-02-24T07:49:49.667Z,38.65
2023-02-24T07:52:22.703Z,40.28
2023-02-24T07:54:56.156Z,38.40
2023-02-24T07:57:29.399Z,39.22
2023-02-24T08:00:16.941Z,38.78
2023-02-24T08:02:51.764Z,37.35
2023-02-24T08:05:25.575Z,39.47
2023-02-24T08:07:58.682Z,38.80
2023-02-24T08:10:36.869Z,37.25
2023-02-24T08:13:11.965Z,38.33
2023-02-24T08:15:45.345Z,37.78
2023-02-24T08:18:20.201Z,37.60
2023-02-24T08:20:53.966Z,36.55
2023-02-24T08:23:27.074Z,35.63
2023-02-24T08:26:03.310Z,36.05
2023-02-24T08:28:36.348Z,35.65
2023-02-24T08:31:10.313Z,35.25
2023-02-24T08:33:44.919Z,36.05
2023-02-24T08:36:21.387Z,35.55
2023-02-24T08:38:57.356Z,33.92
2023-02-24T08:41:44.921Z,33.25
2023-02-24T08:44:20.356Z,34.42
2023-02-24T08:46:54.303Z,33.90
2023-02-24T08:49:28.758Z,33.28
2023-02-24T08:52:02.585Z,37.15
2023-02-24T08:54:48.011Z,36.50
2023-02-24T08:57:26.000Z,36.33
2023-02-24T08:59:59.043Z,35.47
2023-02-24T09:02:37.283Z,36.38
2023-02-24T09:05:14.589Z,35.63
2023-02-24T09:07:54.703Z,36.38
2023-02-24T09:10:28.640Z,38.08
2023-02-24T09:13:08.674Z,38.65
2023-02-24T09:15:44.234Z,36.90
2023-02-24T09:18:17.429Z,37.38
2023-02-24T09:21:16.132Z,37.30
2023-02-24T09:23:49.594Z,36.90
2023-02-24T09:26:22.961Z,37.88
2023-02-24T09:28:59.086Z,38.50
2023-02-24T09:31:48.160Z,38.00
2023-02-24T09:34:30.081Z,37.20
2023-02-24T09:37:24.078Z,38.20
2023-02-24T09:40:31.637Z,35.35
2023-02-24T09:43:11.081Z,35.40
2023-02-24T09:45:53.480Z,37.65
2023-02-24T09:48:43.742Z,36.30
2023-02-24T09:51:22.919Z,37.88
2023-02-24T09:54:02.097Z,38.45
2023-02-24T09:56:42.586Z,39.55
2023-02-24T09:59:27.050Z,39.03
2023-02-24T10:02:15.081Z,37.65
2023-02-24T10:05:07.317Z,38.97
2023-02-24T10:07:44.029Z,37.35
2023-02-24T10:10:28.147Z,37.80
2023-02-24T10:13:14.810Z,36.05
2023-02-24T10:16:05.950Z,36.95
2023-02-24T10:18:46.963Z,37.22
2023-02-24T10:21:30.907Z,36.50
2023-02-24T10:24:14.519Z,34.85
2023-02-24T10:27:07.924Z,35.13
2023-02-24T10:30:04.024Z,38.03
2023-02-24T10:32:47.083Z,37.00
2023-02-24T10:35:26.018Z,34.17
2023-02-24T10:38:05.165Z,36.20
2023-02-24T10:40:52.644Z,33.95
2023-02-24T10:43:31.565Z,35.40
2023-02-24T10:46:17.226Z,34.50
2023-02-24T10:49:00.673Z,33.33
2023-02-24T10:51:40.372Z,33.60
2023-02-24T10:54:34.427Z,34.97
2023-02-24T10:57:15.772Z,35.13
2023-02-24T11:00:15.559Z,33.17
2023-02-24T11:03:08.445Z,34.95
2023-02-24T11:06:08.174Z,32.45
2023-02-24T11:08:54.369Z,33.75
2023-02-24T11:11:57.403Z,31.33
2023-02-24T11:14:48.214Z,31.02
2023-02-24T11:17:27.314Z,30.73
2023-02-24T11:20:10.751Z,28.67
2023-02-24T11:22:45.778Z,29.65
2023-02-24T11:25:25.856Z,28.52
2023-02-24T11:27:59.540Z,28.00
2023-02-24T11:30:45.430Z,27.08
2023-02-24T11:33:30.450Z,25.05
2023-02-24T11:36:14.410Z,26.50
2023-02-24T11:39:08.387Z,24.55
2023-02-24T11:41:53.826Z,24.83
2023-02-24T11:44:34.607Z,25.30
2023-02-24T11:47:14.598Z,24.73
2023-02-24T11:49:53.529Z,26.27
2023-02-24T11:52:32.307Z,25.48
2023-02-24T11:55:16.479Z,23.65
2023-02-24T11:57:53.669Z,23.55
2023-02-24T12:00:32.772Z,24.30
2023-02-24T12:03:15.496Z,25.13
2023-02-24T12:05:55.010Z,25.52
2023-02-24T12:08:33.357Z,24.33
2023-02-24T12:11:13.123Z,25.38
2023-02-24T12:13:53.822Z,23.85
2023-02-24T12:16:33.761Z,24.83
2023-02-24T12:19:18.561Z,22.33
2023-02-24T12:21:59.469Z,24.55
2023-02-24T12:24:35.814Z,23.13
2023-02-24T12:27:22.802Z,24.13
2023-02-24T12:30:22.747Z,22.60
2023-02-24T12:33:16.098Z,24.90
2023-02-24T12:35:56.392Z,23.08
2023-02-24T12:38:46.175Z,24.08
2023-02-24T12:41:49.005Z,23.95
2023-02-24T12:44:33.055Z,24.52
2023-02-24T12:47:11.746Z,23.42
2023-02-24T12:50:16.698Z,23.92
2023-02-24T12:53:00.255Z,24.33
2023-02-24T12:55:45.530Z,24.25
2023-02-24T12:58:23.577Z,22.67
2023-02-24T13:01:08.614Z,21.20
2023-02-24T13:04:12.898Z,22.85
2023-02-24T13:07:02.855Z,20.83
2023-02-24T13:09:44.761Z,22.70
2023-02-24T13:12:27.178Z,20.73
2023-02-24T13:15:00.563Z,20.30
2023-02-24T13:17:33.693Z,19.05
2023-02-24T13:20:14.343Z,17.98
2023-02-24T13:22:50.581Z,17.95
2023-02-24T13:25:31.081Z,17.60
2023-02-24T13:28:23.814Z,16.98
2023-02-24T13:31:02.278Z,17.50
2023-02-24T13:33:39.140Z,17.38
2023-02-24T13:36:17.219Z,17.45
2023-02-24T13:38:53.199Z,17.38
2023-02-24T13:41:41.640Z,19.70
2023-02-24T13:44:32.760Z,19.02
2023-02-24T13:47:59.370Z,19.02
2023-02-24T13:50:42.190Z,19.45
2023-02-24T13:53:38.135Z,18.42
2023-02-24T13:56:27.890Z,19.33
2023-02-24T13:59:40.926Z,19.17
2023-02-24T14:02:18.203Z,19.27
2023-02-24T14:04:54.047Z,19.90
2023-02-24T14:07:31.844Z,19.42
2023-02-24T14:10:18.564Z,19.60
2023-02-24T14:13:00.373Z,18.98
2023-02-24T14:15:35.831Z,20.08
2023-02-24T14:18:20.892Z,19.90
2023-02-24T14:20:56.596Z,19.23
2023-02-24T14:23:32.873Z,19.77
2023-02-24T14:26:09.945Z,18.92
2023-02-24T14:28:43.593Z,17.58
2023-02-24T14:31:23.509Z,18.77
2023-02-24T14:34:01.521Z,18.25
2023-02-24T14:36:38.204Z,17.85
2023-02-24T14:39:17.427Z,18.05
2023-02-24T14:41:52.600Z,18.55
2023-02-24T14:44:27.969Z,19.58
2023-02-24T14:47:06.497Z,19.40
2023-02-24T14:49:39.853Z,18.80
2023-02-24T14:52:19.431Z,18.88
2023-02-24T14:54:58.346Z,19.95
2023-02-24T14:57:35.853Z,20.20
2023-02-24T15:00:17.393Z,20.67
2023-02-24T15:02:57.926Z,21.88
2023-02-24T15:05:31.178Z,21.98
2023-02-24T15:08:04.907Z,20.83
2023-02-24T15:10:38.128Z,21.95
2023-02-24T15:13:18.652Z,19.70
2023-02-24T15:15:51.798Z,21.98
2023-02-24T15:18:28.765Z,23.63
2023-02-24T15:21:03.452Z,21.38
2023-02-24T15:23:38.900Z,22.33
2023-02-24T15:26:27.616Z,22.23
2023-02-24T15:29:02.979Z,23.65
2023-02-24T15:31:36.216Z,23.70
2023-02-24T15:34:20.925Z,24.63
2023-02-24T15:37:01.224Z,23.13
2023-02-24T15:39:36.890Z,22.98
2023-02-24T15:42:21.880Z,23.05
2023-02-24T15:44:56.885Z,24.88
2023-02-24T15:47:33.334Z,26.75
2023-02-24T15:50:09.245Z,25.63
2023-02-24T15:52:42.702Z,27.00
2023-02-24T15:55:17.708Z,25.92
2023-02-24T15:57:59.400Z,23.70
2023-02-24T16:00:32.626Z,23.88
2023-02-24T16:03:05.687Z,24.20
2023-02-24T16:05:40.415Z,23.08
2023-02-24T16:08:18.829Z,23.20
2023-02-24T16:10:53.450Z,23.38
2023-02-24T16:13:27.774Z,25.33
2023-02-24T16:16:00.873Z,27.15
2023-02-24T16:18:34.598Z,25.13
2023-02-24T16:21:09.165Z,25.55
2023-02-24T16:23:42.263Z,26.48
2023-02-24T16:26:19.183Z,26.15
2023-02-24T16:28:56.106Z,23.90
2023-02-24T16:31:29.451Z,26.70
2023-02-24T16:34:02.898Z,25.08
2023-02-24T16:36:42.719Z,24.95
2023-02-24T16:39:15.807Z,27.15
2023-02-24T16:41:48.847Z,26.83
2023-02-24T16:44:23.179Z,26.30
2023-02-24T16:46:56.230Z,26.10
2023-02-24T16:49:29.534Z,26.05
2023-02-24T16:52:04.192Z,28.70
2023-02-24T16:54:38.014Z,28.33
2023-02-24T16:57:11.018Z,28.90
2023-02-24T16:59:44.068Z,29.65
2023-02-24T17:02:22.472Z,30.42
2023-02-24T17:04:55.553Z,30.75
2023-02-24T17:07:29.992Z,28.55
2023-02-24T17:10:03.052Z,30.40
2023-02-24T17:12:36.157Z,30.33
2023-02-24T17:15:13.757Z,30.40
2023-02-24T17:17:47.187Z,29.37
2023-02-24T17:20:21.828Z,28.23
2023-02-24T17:22:56.274Z,29.67
2023-02-24T17:25:31.579Z,29.47
2023-02-24T17:28:06.347Z,27.35
2023-02-24T17:30:40.179Z,28.30
2023-02-24T17:33:14.426Z,31.73
2023-02-24T17:35:48.750Z,31.93
2023-02-24T17:38:24.230Z,30.92
2023-02-24T17:40:57.604Z,30.60
2023-02-24T17:43:30.756Z,29.25
2023-02-24T17:46:07.144Z,28.90
2023-02-24T17:48:40.500Z,29.83
2023-02-24T17:51:15.136Z,30.50
2023-02-24T17:53:49.814Z,29.20
2023-02-24T17:56:23.177Z,29.40
2023-02-24T17:58:58.932Z,28.37
2023-02-24T18:01:32.085Z,31.63
2023-02-24T18:04:07.924Z,35.60
2023-02-24T18:06:41.031Z,33.60
2023-02-24T18:09:15.461Z,31.77
2023-02-24T18:11:48.527Z,30.53
2023-02-24T18:14:21.912Z,30.90
2023-02-24T18:16:55.060Z,30.50
2023-02-24T18:19:28.072Z,27.53
2023-02-24T18:22:01.076Z,27.43
2023-02-24T18:24:35.452Z,27.33
2023-02-24T18:27:09.259Z,25.93
2023-02-24T18:29:42.767Z,27.33
2023-02-24T18:32:16.112Z,26.60
2023-02-24T18:34:49.850Z,24.87
2023-02-24T18:37:23.152Z,26.17
2023-02-24T18:39:57.617Z,23.93
2023-02-24T18:42:30.661Z,26.08
2023-02-24T18:45:03.739Z,23.93
2023-02-24T18:47:36.823Z,20.10
2023-02-24T18:50:11.687Z,20.27
2023-02-24T18:52:45.626Z,18.50
2023-02-24T18:55:22.191Z,18.13
2023-02-24T18:57:55.250Z,16.73
2023-02-24T19:00:28.338Z,17.47
2023-02-24T19:03:01.485Z,17.13
2023-02-24T19:05:38.849Z,16.50
2023-02-24T19:08:12.145Z,15.43
2023-02-24T19:10:46.530Z,16.40
2023-02-24T19:13:19.747Z,15.87
2023-02-24T19:15:52.849Z,16.73
2023-02-24T19:18:25.883Z,15.53
2023-02-24T19:20:58.995Z,15.03
2023-02-24T19:23:32.070Z,15.23
2023-02-24T19:26:07.470Z,15.73
2023-02-24T19:28:40.580Z,16.27
2023-02-24T19:31:16.003Z,15.67
2023-02-24T19:33:53.711Z,17.40
2023-02-24T19:36:29.643Z,16.30
2023-02-24T19:39:03.056Z,14.93
2023-02-24T19:41:38.311Z,14.50
2023-02-24T19:44:12.672Z,16.20
2023-02-24T19:46:45.937Z,17.47
2023-02-24T19:49:18.963Z,15.13
2023-02-24T19:51:54.968Z,17.27
2023-02-24T19:54:29.052Z,17.80
2023-02-24T19:57:03.501Z,17.97
2023-02-24T19:59:36.510Z,18.20
2023-02-24T20:02:11.575Z,18.33
2023-02-24T20:04:44.828Z,19.80
2023-02-24T20:07:17.861Z,19.40
2023-02-24T20:09:50.890Z,18.93
2023-02-24T20:12:25.242Z,19.60
2023-02-24T20:14:58.414Z,20.00
2023-02-24T20:17:31.538Z,19.90
2023-02-24T20:20:05.977Z,19.87
2023-02-24T20:22:39.669Z,21.77
2023-02-24T20:25:12.674Z,19.27
2023-02-24T20:27:47.051Z,21.80
2023-02-24T20:30:20.304Z,21.20
2023-02-24T20:32:53.886Z,21.30
2023-02-24T20:35:28.332Z,21.27
2023-02-24T20:38:01.362Z,20.77
2023-02-24T20:40:34.449Z,20.17
2023-02-24T20:43:10.834Z,20.00
2023-02-24T20:45:43.870Z,20.73
2023-02-24T20:48:16.926Z,21.47
2023-02-24T20:50:49.985Z,19.83
2023-02-24T20:53:23.036Z,20.10
2023-02-24T20:56:02.667Z,21.50
2023-02-24T20:58:37.076Z,20.23
2023-02-24T21:01:12.831Z,20.77
2023-02-24T21:03:47.098Z,19.10
2023-02-24T21:06:20.393Z,20.27
2023-02-24T21:08:54.084Z,19.77
2023-02-24T21:11:29.725Z,20.00
2023-02-24T21:14:05.880Z,21.10
2023-02-24T21:16:39.356Z,20.63
2023-02-24T21:19:13.165Z,19.43
2023-02-24T21:21:48.107Z,15.83
2023-02-24T21:24:24.047Z,15.90
2023-02-24T21:26:57.091Z,15.60
2023-02-24T21:29:31.743Z,13.37
2023-02-24T21:32:05.374Z,14.13
2023-02-24T21:34:38.454Z,14.60
2023-02-24T21:37:11.456Z,12.30
2023-02-24T21:39:44.459Z,11.10
2023-02-24T21:42:17.480Z,9.97
2023-02-24T21:44:51.976Z,8.67
2023-02-24T21:47:25.246Z,6.67
2023-02-24T21:49:58.267Z,6.13
2023-02-24T21:52:31.596Z,5.23
2023-02-24T21:55:05.483Z,4.87
2023-02-24T21:57:41.248Z,4.50
2023-02-24T22:00:21.012Z,4.37
2023-02-24T22:02:56.325Z,3.70
2023-02-24T22:05:29.373Z,4.03
2023-02-24T22:08:02.398Z,3.63
2023-02-24T22:10:35.404Z,4.10
2023-02-24T22:13:08.526Z,4.17
2023-02-24T22:15:42.919Z,4.10
2023-02-24T22:18:15.989Z,4.10
2023-02-24T22:20:49.081Z,4.03
2023-02-24T22:23:22.203Z,3.90
2023-02-24T22:25:55.215Z,4.10
2023-02-24T22:28:28.335Z,3.97
2023-02-24T22:31:03.398Z,3.60
2023-02-24T22:33:40.915Z,3.33
2023-02-24T22:36:16.358Z,4.13
2023-02-24T22:38:49.804Z,3.33
2023-02-24T22:41:25.438Z,3.83
2023-02-24T22:43:58.811Z,4.10
2023-02-24T22:46:35.752Z,4.13
2023-02-24T22:49:08.853Z,4.00
2023-02-24T22:51:42.201Z,3.97
2023-02-24T22:54:15.636Z,4.43
2023-02-24T22:56:48.717Z,4.10
2023-02-24T22:59:21.711Z,4.57
2023-02-24T23:01:56.168Z,4.20
2023-02-24T23:04:29.849Z,5.40
2023-02-24T23:07:02.961Z,4.37
2023-02-24T23:09:36.099Z,5.67
2023-02-24T23:12:11.651Z,7.63
2023-02-24T23:14:44.853Z,7.13
2023-02-24T23:17:19.241Z,5.97
2023-02-24T23:19:52.328Z,5.13
2023-02-24T23:22:25.361Z,5.50
2023-02-24T23:24:58.372Z,5.77
2023-02-24T23:27:31.401Z,6.50
2023-02-24T23:30:05.388Z,10.07
2023-02-24T23:32:39.847Z,11.47
2023-02-24T23:35:13.537Z,10.37
2023-02-24T23:37:46.696Z,6.90
2023-02-24T23:40:25.847Z,7.10
2023-02-24T23:42:59.162Z,7.13
2023-02-24T23:45:32.297Z,7.53
2023-02-24T23:48:07.233Z,7.40
2023-02-24T23:50:42.400Z,7.40
2023-02-24T23:53:15.419Z,9.20
2023-02-24T23:55:48.504Z,9.00
2023-02-24T23:58:21.587Z,9.13
